createdAt,value
2023-01-08T00:01:43.482Z,5.10
2023-01-08T00:04:13.039Z,5.10
2023-01-08T00:06:40.406Z,5.20
2023-01-08T00:09:07.422Z,5.10
2023-01-08T00:11:35.059Z,5.10
2023-01-08T00:14:02.066Z,5.10
2023-01-08T00:16:30.076Z,5.10
2023-01-08T00:18:57.130Z,5.00
2023-01-08T00:21:24.415Z,5.10
2023-01-08T00:23:51.368Z,5.10
2023-01-08T00:26:18.642Z,5.10
2023-01-08T00:28:46.519Z,5.10
2023-01-08T00:31:14.133Z,5.00
2023-01-08T00:33:41.759Z,5.10
2023-01-08T00:36:11.705Z,5.10
2023-01-08T00:38:38.702Z,5.00
2023-01-08T00:41:06.164Z,5.00
2023-01-08T00:43:36.407Z,5.00
2023-01-08T00:46:04.077Z,5.00
2023-01-08T00:48:31.428Z,5.00
2023-01-08T00:51:01.375Z,4.90
2023-01-08T00:53:28.390Z,4.90
2023-01-08T00:56:03.679Z,5.00
2023-01-08T00:58:30.856Z,5.00
2023-01-08T01:00:58.442Z,4.90
2023-01-08T01:03:26.128Z,4.90
2023-01-08T01:06:07.075Z,4.90
2023-01-08T01:08:35.203Z,4.90
2023-01-08T01:11:19.413Z,4.90
2023-01-08T01:13:46.946Z,4.90
2023-01-08T01:16:14.509Z,5.00
2023-01-08T01:18:41.632Z,4.90
2023-01-08T01:21:30.202Z,5.00
2023-01-08T01:23:59.265Z,5.00
2023-01-08T01:26:27.274Z,4.90
2023-01-08T01:28:56.594Z,5.00
2023-01-08T01:31:25.971Z,5.00
2023-01-08T01:33:52.953Z,5.00
2023-01-08T01:36:23.514Z,5.00
2023-01-08T01:38:54.127Z,5.00
2023-01-08T01:41:42.202Z,5.00
2023-01-08T01:44:34.152Z,5.10
2023-01-08T01:47:10.709Z,5.10
2023-01-08T01:49:39.083Z,5.10
2023-01-08T01:52:09.409Z,5.00
2023-01-08T01:54:36.897Z,5.00
2023-01-08T01:57:05.059Z,5.00
2023-01-08T01:59:32.014Z,5.10
2023-01-08T02:02:00.353Z,5.10
2023-01-08T02:04:27.421Z,5.10
2023-01-08T02:07:12.737Z,5.10
2023-01-08T02:09:51.989Z,5.10
2023-01-08T02:12:47.078Z,5.10
2023-01-08T02:15:25.881Z,5.10
2023-01-08T02:18:20.883Z,5.10
2023-01-08T02:20:57.517Z,5.10
2023-01-08T02:23:37.037Z,5.10
2023-01-08T02:26:11.345Z,5.10
2023-01-08T02:28:47.846Z,5.10
2023-01-08T02:31:17.456Z,5.10
2023-01-08T02:33:44.800Z,5.10
2023-01-08T02:36:14.735Z,5.10
2023-01-08T02:39:01.115Z,5.10
2023-01-08T02:41:47.771Z,5.10
2023-01-08T02:44:22.128Z,5.10
2023-01-08T02:46:51.869Z,5.10
2023-01-08T02:49:21.131Z,5.10
2023-01-08T02:51:54.625Z,5.10
2023-01-08T02:54:26.627Z,5.10
2023-01-08T02:57:03.230Z,5.10
2023-01-08T02:59:32.640Z,5.00
2023-01-08T03:02:05.379Z,5.00
2023-01-08T03:04:37.919Z,5.20
2023-01-08T03:07:05.090Z,4.90
2023-01-08T03:09:32.672Z,4.90
2023-01-08T03:12:11.096Z,4.90
2023-01-08T03:14:44.122Z,4.90
2023-01-08T03:17:20.235Z,4.80
2023-01-08T03:20:18.548Z,4.90
2023-01-08T03:22:48.758Z,4.90
2023-01-08T03:25:17.919Z,4.80
2023-01-08T03:27:51.060Z,4.90
2023-01-08T03:30:20.903Z,4.80
2023-01-08T03:32:50.151Z,4.80
2023-01-08T03:35:20.792Z,4.70
2023-01-08T03:37:56.591Z,4.70
2023-01-08T03:40:31.980Z,4.70
2023-01-08T03:42:59.061Z,4.60
2023-01-08T03:45:30.115Z,4.60
2023-01-08T03:47:58.266Z,4.60
2023-01-08T03:50:28.996Z,4.50
2023-01-08T03:52:56.019Z,4.50
2023-01-08T03:55:23.824Z,4.40
2023-01-08T03:57:50.891Z,4.50
2023-01-08T04:00:18.285Z,4.40
2023-01-08T04:02:47.408Z,4.40
2023-01-08T04:05:14.930Z,4.40
2023-01-08T04:07:41.926Z,4.40
2023-01-08T04:10:09.518Z,4.30
2023-01-08T04:12:36.635Z,4.20
2023-01-08T04:15:04.345Z,4.20
2023-01-08T04:17:31.315Z,4.20
2023-01-08T04:19:58.562Z,4.20
2023-01-08T04:22:25.594Z,4.10
2023-01-08T04:24:52.926Z,4.10
2023-01-08T04:27:19.856Z,4.10
2023-01-08T04:29:47.180Z,4.00
2023-01-08T04:32:14.286Z,4.00
2023-01-08T04:34:41.551Z,4.00
2023-01-08T04:37:08.622Z,4.00
2023-01-08T04:39:35.873Z,3.90
2023-01-08T04:42:02.861Z,3.90
2023-01-08T04:44:30.200Z,3.90
2023-01-08T04:46:57.156Z,3.90
2023-01-08T04:49:24.497Z,3.90
2023-01-08T04:51:51.907Z,3.90
2023-01-08T04:54:19.128Z,3.90
2023-01-08T04:56:46.262Z,3.90
2023-01-08T04:59:13.616Z,3.90
2023-01-08T05:01:40.702Z,3.90
2023-01-08T05:04:07.988Z,3.90
2023-01-08T05:06:34.932Z,3.80
2023-01-08T05:09:02.244Z,3.80
2023-01-08T05:11:29.427Z,3.80
2023-01-08T05:13:57.099Z,3.80
2023-01-08T05:16:24.157Z,3.70
2023-01-08T05:18:51.520Z,3.70
2023-01-08T05:21:18.591Z,3.70
2023-01-08T05:23:50.464Z,3.70
2023-01-08T05:26:19.232Z,3.70
2023-01-08T05:28:47.341Z,3.70
2023-01-08T05:31:15.092Z,3.80
2023-01-08T05:33:42.532Z,3.80
2023-01-08T05:36:11.284Z,3.80
2023-01-08T05:38:38.759Z,3.80
2023-01-08T05:41:06.646Z,3.80
2023-01-08T05:43:34.551Z,3.80
2023-01-08T05:46:02.878Z,3.80
2023-01-08T05:48:31.849Z,3.80
2023-01-08T05:50:58.855Z,3.80
2023-01-08T05:53:26.229Z,3.80
2023-01-08T05:55:59.115Z,3.80
2023-01-08T05:58:27.273Z,3.70
2023-01-08T06:00:55.757Z,3.70
2023-01-08T06:03:23.618Z,3.70
2023-01-08T06:05:50.599Z,3.70
2023-01-08T06:08:17.904Z,3.60
2023-01-08T06:10:44.948Z,3.60
2023-01-08T06:13:12.243Z,3.60
2023-01-08T06:15:40.173Z,3.60
2023-01-08T06:18:07.600Z,3.50
2023-01-08T06:20:34.573Z,3.50
2023-01-08T06:23:01.907Z,3.50
2023-01-08T06:25:29.902Z,3.50
2023-01-08T06:27:57.165Z,3.50
2023-01-08T06:30:24.210Z,3.50
2023-01-08T06:32:56.376Z,3.60
2023-01-08T06:35:23.444Z,3.60
2023-01-08T06:37:50.813Z,3.60
2023-01-08T06:40:18.231Z,3.60
2023-01-08T06:42:46.475Z,3.60
2023-01-08T06:45:13.677Z,3.50
2023-01-08T06:47:41.048Z,3.60
2023-01-08T06:50:08.857Z,3.50
2023-01-08T06:52:36.151Z,3.50
2023-01-08T06:55:04.891Z,3.50
2023-01-08T06:57:32.501Z,3.40
2023-01-08T06:59:59.575Z,3.40
2023-01-08T07:02:27.085Z,3.40
2023-01-08T07:04:54.520Z,3.40
2023-01-08T07:07:21.757Z,3.40
2023-01-08T07:09:48.756Z,3.50
2023-01-08T07:12:18.365Z,3.50
2023-01-08T07:14:45.325Z,3.50
2023-01-08T07:17:12.723Z,3.50
2023-01-08T07:19:40.021Z,3.50
2023-01-08T07:22:07.422Z,3.60
2023-01-08T07:24:34.382Z,3.60
2023-01-08T07:27:01.642Z,3.60
2023-01-08T07:29:28.928Z,3.60
2023-01-08T07:31:56.273Z,3.70
2023-01-08T07:34:23.275Z,3.70
2023-01-08T07:36:50.611Z,3.70
2023-01-08T07:39:17.543Z,3.70
2023-01-08T07:41:44.836Z,3.70
2023-01-08T07:44:12.243Z,3.70
2023-01-08T07:46:39.646Z,3.70
2023-01-08T07:49:07.236Z,3.70
2023-01-08T07:51:34.626Z,3.70
2023-01-08T07:54:01.697Z,3.70
2023-01-08T07:56:31.627Z,3.80
2023-01-08T07:58:58.566Z,3.70
2023-01-08T08:01:26.502Z,3.80
2023-01-08T08:03:53.685Z,3.80
2023-01-08T08:06:20.947Z,3.80
2023-01-08T08:08:48.036Z,3.80
2023-01-08T08:11:15.369Z,3.80
2023-01-08T08:13:44.938Z,3.80
2023-01-08T08:16:13.299Z,3.80
2023-01-08T08:18:40.392Z,3.80
2023-01-08T08:21:07.734Z,3.80
2023-01-08T08:23:36.576Z,3.80
2023-01-08T08:26:05.115Z,3.80
2023-01-08T08:28:32.152Z,3.70
2023-01-08T08:30:59.492Z,3.70
2023-01-08T08:33:26.528Z,3.70
2023-01-08T08:35:53.928Z,3.70
2023-01-08T08:38:23.231Z,3.60
2023-01-08T08:40:51.374Z,3.60
2023-01-08T08:43:18.702Z,3.60
2023-01-08T08:45:46.079Z,3.70
2023-01-08T08:48:13.077Z,3.70
2023-01-08T08:50:40.387Z,3.80
2023-01-08T08:53:07.667Z,3.80
2023-01-08T08:55:35.033Z,3.80
2023-01-08T08:58:04.944Z,3.80
2023-01-08T09:00:32.662Z,3.90
2023-01-08T09:02:59.921Z,3.90
2023-01-08T09:05:30.819Z,3.90
2023-01-08T09:07:57.992Z,3.90
2023-01-08T09:10:28.036Z,3.90
2023-01-08T09:12:55.140Z,3.90
2023-01-08T09:15:22.731Z,3.80
2023-01-08T09:17:56.857Z,3.80
2023-01-08T09:20:28.573Z,3.80
2023-01-08T09:22:59.229Z,3.80
2023-01-08T09:25:27.286Z,3.80
2023-01-08T09:28:03.526Z,3.80
2023-01-08T09:30:31.374Z,4.10
2023-01-08T09:33:03.252Z,3.80
2023-01-08T09:35:31.583Z,3.80
2023-01-08T09:37:59.238Z,3.80
2023-01-08T09:40:35.004Z,3.80
2023-01-08T09:43:08.317Z,3.80
2023-01-08T09:45:38.977Z,3.80
2023-01-08T09:48:11.188Z,4.00
2023-01-08T09:50:38.796Z,4.00
2023-01-08T09:53:10.502Z,4.00
2023-01-08T09:55:38.095Z,4.00
2023-01-08T09:58:23.538Z,4.00
2023-01-08T10:00:54.972Z,4.00
2023-01-08T10:03:27.608Z,4.10
2023-01-08T10:05:55.403Z,4.10
2023-01-08T10:08:24.635Z,4.10
2023-01-08T10:10:52.487Z,4.10
2023-01-08T10:13:19.843Z,4.10
2023-01-08T10:15:48.315Z,4.10
2023-01-08T10:18:19.659Z,4.10
2023-01-08T10:20:48.412Z,4.10
2023-01-08T10:23:18.375Z,4.20
2023-01-08T10:25:52.762Z,4.20
2023-01-08T10:28:26.085Z,4.20
2023-01-08T10:30:58.616Z,4.20
2023-01-08T10:33:43.571Z,4.20
2023-01-08T10:36:16.003Z,4.30
2023-01-08T10:38:56.466Z,4.30
2023-01-08T10:41:24.361Z,4.20
2023-01-08T10:44:01.740Z,4.20
2023-01-08T10:46:35.945Z,4.20
2023-01-08T10:49:05.534Z,4.30
2023-01-08T10:51:34.058Z,4.30
2023-01-08T10:54:23.538Z,4.30
2023-01-08T10:56:50.876Z,4.30
2023-01-08T10:59:19.738Z,4.30
2023-01-08T11:01:49.759Z,4.30
2023-01-08T11:04:36.757Z,4.30
2023-01-08T11:07:07.293Z,4.30
2023-01-08T11:09:41.704Z,4.40
2023-01-08T11:12:30.625Z,4.40
2023-01-08T11:14:57.800Z,4.40
2023-01-08T11:17:27.413Z,4.40
2023-01-08T11:19:55.884Z,4.40
2023-01-08T11:22:25.297Z,4.40
2023-01-08T11:24:56.640Z,4.40
2023-01-08T11:27:30.565Z,4.40
2023-01-08T11:30:11.219Z,4.40
2023-01-08T11:32:41.608Z,4.40
2023-01-08T11:35:14.653Z,4.40
2023-01-08T11:37:50.898Z,4.40
2023-01-08T11:40:33.616Z,4.40
2023-01-08T11:43:27.847Z,4.40
2023-01-08T11:46:19.503Z,4.40
2023-01-08T11:49:15.882Z,4.30
2023-01-08T11:52:14.207Z,4.30
2023-01-08T11:55:00.268Z,4.30
2023-01-08T11:57:36.178Z,4.30
2023-01-08T12:00:18.892Z,4.30
2023-01-08T12:03:02.281Z,4.30
2023-01-08T12:05:32.787Z,4.30
2023-01-08T12:08:05.488Z,4.30
2023-01-08T12:10:41.790Z,4.20
2023-01-08T12:13:17.869Z,4.30
2023-01-08T12:16:16.975Z,4.30
2023-01-08T12:19:06.846Z,4.30
2023-01-08T12:21:58.437Z,4.30
2023-01-08T12:24:46.597Z,4.30
2023-01-08T12:27:19.489Z,4.30
2023-01-08T12:30:08.330Z,4.30
2023-01-08T12:33:00.437Z,4.30
2023-01-08T12:35:33.915Z,4.30
2023-01-08T12:38:13.020Z,4.30
2023-01-08T12:40:43.708Z,4.30
2023-01-08T12:43:26.374Z,4.30
2023-01-08T12:45:56.981Z,4.30
2023-01-08T12:48:27.957Z,4.20
2023-01-08T12:51:19.209Z,4.30
2023-01-08T12:54:05.032Z,4.30
2023-01-08T12:56:53.890Z,4.20
2023-01-08T12:59:37.244Z,4.20
2023-01-08T13:02:32.313Z,4.20
2023-01-08T13:05:11.611Z,4.20
2023-01-08T13:07:44.884Z,4.30
2023-01-08T13:10:49.657Z,4.20
2023-01-08T13:13:45.076Z,4.20
2023-01-08T13:16:14.294Z,4.20
2023-01-08T13:18:50.578Z,4.30
2023-01-08T13:21:27.008Z,4.20
2023-01-08T13:24:04.978Z,4.20
2023-01-08T13:26:35.233Z,4.20
2023-01-08T13:29:41.417Z,4.20
2023-01-08T13:32:45.636Z,4.20
2023-01-08T13:35:16.011Z,4.20
2023-01-08T13:37:48.452Z,4.20
2023-01-08T13:40:38.818Z,4.20
2023-01-08T13:43:22.699Z,4.20
2023-01-08T13:46:09.198Z,4.10
2023-01-08T13:49:10.572Z,4.20
2023-01-08T13:51:47.755Z,4.20
2023-01-08T13:54:15.122Z,4.20
2023-01-08T13:56:44.863Z,4.20
2023-01-08T13:59:32.556Z,4.20
2023-01-08T14:02:01.526Z,4.20
2023-01-08T14:04:29.080Z,4.20
2023-01-08T14:07:13.232Z,4.20
2023-01-08T14:09:40.587Z,4.20
2023-01-08T14:12:16.027Z,4.20
2023-01-08T14:14:48.868Z,4.20
2023-01-08T14:17:21.174Z,4.20
2023-01-08T14:19:49.123Z,4.20
2023-01-08T14:22:20.141Z,4.20
2023-01-08T14:24:54.359Z,4.20
2023-01-08T14:27:30.316Z,4.10
2023-01-08T14:29:58.355Z,4.20
2023-01-08T14:32:30.625Z,4.20
2023-01-08T14:35:00.986Z,4.20
2023-01-08T14:37:28.320Z,4.20
2023-01-08T14:39:59.763Z,4.20
2023-01-08T14:42:44.422Z,4.20
2023-01-08T14:45:28.938Z,4.20
2023-01-08T14:48:14.991Z,4.20
2023-01-08T14:50:45.531Z,4.10
2023-01-08T14:53:28.560Z,4.20
2023-01-08T14:55:58.056Z,4.20
2023-01-08T14:58:28.129Z,4.20
2023-01-08T15:00:59.702Z,4.20
2023-01-08T15:03:34.250Z,4.20
2023-01-08T15:06:08.136Z,4.20
2023-01-08T15:08:39.913Z,4.20
2023-01-08T15:11:19.668Z,4.20
2023-01-08T15:13:48.533Z,4.20
2023-01-08T15:16:32.574Z,4.20
2023-01-08T15:19:13.024Z,4.20
2023-01-08T15:21:47.473Z,4.20
2023-01-08T15:24:40.848Z,4.20
2023-01-08T15:27:17.817Z,4.20
2023-01-08T15:29:59.858Z,4.10
2023-01-08T15:32:37.227Z,4.10
2023-01-08T15:35:15.611Z,4.10
2023-01-08T15:37:43.316Z,4.10
2023-01-08T15:40:14.211Z,4.10
2023-01-08T15:43:00.731Z,4.10
2023-01-08T15:45:31.498Z,4.10
2023-01-08T15:47:59.209Z,4.10
2023-01-08T15:50:28.104Z,4.10
2023-01-08T15:52:57.523Z,4.10
2023-01-08T15:55:25.490Z,4.20
2023-01-08T15:57:56.399Z,4.20
2023-01-08T16:00:23.802Z,4.10
2023-01-08T16:02:53.818Z,4.10
2023-01-08T16:05:23.004Z,4.10
2023-01-08T16:07:50.704Z,4.10
2023-01-08T16:10:20.990Z,4.10
2023-01-08T16:12:48.594Z,4.10
2023-01-08T16:15:16.236Z,4.10
2023-01-08T16:17:44.017Z,4.40
2023-01-08T16:20:13.262Z,4.10
2023-01-08T16:22:41.403Z,4.10
2023-01-08T16:25:11.021Z,4.00
2023-01-08T16:27:39.525Z,4.00
2023-01-08T16:30:15.948Z,4.00
2023-01-08T16:32:44.164Z,4.00
2023-01-08T16:35:11.495Z,4.00
2023-01-08T16:37:41.843Z,3.90
2023-01-08T16:40:10.006Z,4.00
2023-01-08T16:42:37.740Z,3.90
2023-01-08T16:45:05.624Z,3.80
2023-01-08T16:47:37.999Z,3.80
2023-01-08T16:50:06.611Z,3.80
2023-01-08T16:52:34.088Z,3.80
2023-01-08T16:55:03.886Z,3.80
2023-01-08T16:57:31.389Z,3.70
2023-01-08T16:59:58.568Z,3.70
2023-01-08T17:02:26.085Z,3.60
2023-01-08T17:04:53.699Z,3.70
2023-01-08T17:07:21.149Z,3.60
2023-01-08T17:09:48.193Z,3.60
2023-01-08T17:12:23.165Z,3.60
2023-01-08T17:14:50.965Z,3.60
2023-01-08T17:17:18.672Z,3.60
2023-01-08T17:19:48.832Z,3.60
2023-01-08T17:22:16.430Z,3.60
2023-01-08T17:24:44.542Z,3.70
2023-01-08T17:27:12.432Z,3.60
2023-01-08T17:29:42.290Z,3.60
2023-01-08T17:32:11.606Z,3.60
2023-01-08T17:34:38.772Z,3.60
2023-01-08T17:37:06.507Z,3.60
2023-01-08T17:39:33.815Z,3.60
2023-01-08T17:42:19.961Z,3.60
2023-01-08T17:44:47.436Z,3.60
2023-01-08T17:47:14.964Z,3.60
2023-01-08T17:49:42.147Z,3.60
2023-01-08T17:52:09.973Z,3.50
2023-01-08T17:54:38.297Z,3.50
2023-01-08T17:57:05.941Z,3.60
2023-01-08T17:59:34.098Z,3.60
2023-01-08T18:02:01.938Z,3.60
2023-01-08T18:04:29.324Z,3.60
2023-01-08T18:06:56.764Z,3.60
2023-01-08T18:09:24.014Z,3.60
2023-01-08T18:11:51.478Z,3.60
2023-01-08T18:14:23.024Z,3.60
2023-01-08T18:16:50.929Z,3.80
2023-01-08T18:19:18.354Z,3.60
2023-01-08T18:21:47.464Z,3.60
2023-01-08T18:24:15.028Z,3.60
2023-01-08T18:26:42.898Z,3.60
2023-01-08T18:29:10.419Z,3.60
2023-01-08T18:31:38.281Z,3.70
2023-01-08T18:34:05.616Z,3.70
2023-01-08T18:36:36.977Z,3.70
2023-01-08T18:39:04.704Z,3.70
2023-01-08T18:41:50.684Z,3.70
2023-01-08T18:44:17.779Z,3.70
2023-01-08T18:46:47.889Z,3.70
2023-01-08T18:49:15.632Z,3.70
2023-01-08T18:51:43.455Z,3.70
2023-01-08T18:54:11.633Z,3.70
2023-01-08T18:56:39.110Z,3.70
2023-01-08T18:59:07.074Z,3.70
2023-01-08T19:01:35.965Z,3.80
2023-01-08T19:04:04.028Z,3.70
2023-01-08T19:06:31.734Z,3.70
2023-01-08T19:08:59.888Z,3.80
2023-01-08T19:11:30.443Z,3.70
2023-01-08T19:13:57.996Z,3.70
2023-01-08T19:16:25.801Z,3.70
2023-01-08T19:18:53.562Z,3.70
2023-01-08T19:21:22.060Z,3.80
2023-01-08T19:23:49.616Z,3.70
2023-01-08T19:26:17.824Z,3.70
2023-01-08T19:28:45.298Z,3.70
2023-01-08T19:31:15.808Z,3.70
2023-01-08T19:33:43.908Z,3.80
2023-01-08T19:36:14.230Z,3.90
2023-01-08T19:38:43.102Z,3.80
2023-01-08T19:41:31.130Z,3.80
2023-01-08T19:43:59.061Z,3.80
2023-01-08T19:46:30.139Z,3.70
2023-01-08T19:48:59.417Z,3.70
2023-01-08T19:51:28.216Z,3.70
2023-01-08T19:53:56.884Z,3.70
2023-01-08T19:56:24.598Z,3.70
2023-01-08T19:58:51.876Z,3.70
2023-01-08T20:01:23.222Z,3.70
2023-01-08T20:03:51.240Z,3.70
2023-01-08T20:06:24.438Z,3.60
2023-01-08T20:08:54.354Z,3.60
2023-01-08T20:11:25.146Z,3.60
2023-01-08T20:13:52.599Z,3.60
2023-01-08T20:16:21.752Z,3.60
2023-01-08T20:18:48.991Z,3.60
2023-01-08T20:21:20.837Z,3.60
2023-01-08T20:23:48.673Z,3.60
2023-01-08T20:26:18.767Z,3.60
2023-01-08T20:28:46.936Z,3.60
2023-01-08T20:31:18.161Z,3.60
2023-01-08T20:33:48.736Z,3.60
2023-01-08T20:36:21.652Z,3.60
2023-01-08T20:39:10.064Z,3.60
2023-01-08T20:41:37.522Z,3.60
2023-01-08T20:44:06.941Z,3.60
2023-01-08T20:46:36.061Z,3.60
2023-01-08T20:49:06.686Z,3.60
2023-01-08T20:51:35.947Z,3.60
2023-01-08T20:54:05.157Z,3.60
2023-01-08T20:56:32.529Z,3.60
2023-01-08T20:59:01.453Z,3.60
2023-01-08T21:01:36.564Z,3.70
2023-01-08T21:04:05.106Z,3.70
2023-01-08T21:06:33.664Z,3.60
2023-01-08T21:09:06.699Z,3.70
2023-01-08T21:11:36.454Z,3.70
2023-01-08T21:14:04.030Z,3.70
2023-01-08T21:16:34.834Z,3.70
2023-01-08T21:19:02.664Z,3.70
2023-01-08T21:21:33.085Z,3.70
2023-01-08T21:24:04.579Z,3.70
2023-01-08T21:26:37.064Z,3.70
2023-01-08T21:29:09.630Z,3.60
2023-01-08T21:31:38.051Z,3.70
2023-01-08T21:34:08.874Z,3.70
2023-01-08T21:36:39.152Z,3.70
2023-01-08T21:39:06.820Z,3.70
2023-01-08T21:41:52.952Z,3.70
2023-01-08T21:44:41.250Z,3.70
2023-01-08T21:47:12.254Z,3.70
2023-01-08T21:49:39.675Z,3.70
2023-01-08T21:52:25.722Z,3.70
2023-01-08T21:54:55.244Z,3.70
2023-01-08T21:57:22.817Z,3.60
2023-01-08T21:59:50.586Z,3.80
2023-01-08T22:02:20.393Z,3.70
2023-01-08T22:04:49.052Z,3.60
2023-01-08T22:07:16.851Z,3.70
2023-01-08T22:09:44.099Z,3.70
2023-01-08T22:12:11.776Z,3.70
2023-01-08T22:14:38.947Z,3.70
2023-01-08T22:17:08.507Z,3.70
2023-01-08T22:19:38.049Z,3.70
2023-01-08T22:22:10.969Z,3.70
2023-01-08T22:24:39.614Z,3.70
2023-01-08T22:27:08.192Z,3.70
2023-01-08T22:29:36.435Z,3.70
2023-01-08T22:32:05.293Z,3.70
2023-01-08T22:34:33.963Z,3.70
2023-01-08T22:37:03.647Z,3.70
2023-01-08T22:39:31.061Z,3.70
2023-01-08T22:41:58.709Z,3.70
2023-01-08T22:44:25.952Z,3.70
2023-01-08T22:46:53.678Z,3.70
2023-01-08T22:49:20.669Z,3.70
2023-01-08T22:51:47.956Z,3.70
2023-01-08T22:54:17.162Z,3.70
2023-01-08T22:56:46.671Z,3.60
2023-01-08T22:59:13.761Z,3.70
2023-01-08T23:01:41.090Z,3.60
2023-01-08T23:04:08.321Z,3.60
2023-01-08T23:06:36.088Z,3.60
2023-01-08T23:09:03.852Z,3.60
2023-01-08T23:11:32.980Z,3.60
2023-01-08T23:14:00.864Z,3.60
2023-01-08T23:16:28.345Z,3.60
2023-01-08T23:18:55.853Z,4.20
2023-01-08T23:21:25.778Z,3.70
2023-01-08T23:23:53.285Z,3.70
2023-01-08T23:26:27.352Z,3.70
2023-01-08T23:28:55.462Z,3.70
2023-01-08T23:31:25.760Z,3.60
2023-01-08T23:33:53.312Z,3.60
2023-01-08T23:36:22.080Z,3.60
2023-01-08T23:38:51.652Z,3.60
2023-01-08T23:41:20.494Z,3.60
2023-01-08T23:43:49.182Z,3.70
2023-01-08T23:46:17.536Z,3.60
2023-01-08T23:48:44.568Z,3.60
2023-01-08T23:51:13.288Z,3.60
2023-01-08T23:53:40.216Z,3.60
2023-01-08T23:56:07.858Z,3.60
2023-01-08T23:58:35.291Z,3.60
